createdAt,value
2018-12-22T00:02:24.317Z,41.30
2018-12-22T00:04:52.488Z,41.50
2018-12-22T00:07:20.744Z,41.20
2018-12-22T00:09:49.096Z,41.20
2018-12-22T00:12:17.219Z,41.30
2018-12-22T00:14:45.355Z,41.10
2018-12-22T00:17:13.514Z,40.90
2018-12-22T00:19:41.677Z,41.00
2018-12-22T00:22:09.815Z,40.70
2018-12-22T00:24:37.968Z,40.50
2018-12-22T00:27:06.115Z,40.30
2018-12-22T00:29:34.271Z,40.50
2018-12-22T00:32:02.504Z,40.90
2018-12-22T00:34:30.713Z,40.90
2018-12-22T00:36:58.882Z,41.00
2018-12-22T00:39:27.059Z,40.90
2018-12-22T00:41:55.215Z,41.00
2018-12-22T00:44:23.483Z,40.90
2018-12-22T00:46:51.659Z,41.20
2018-12-22T00:49:19.845Z,41.20
2018-12-22T00:51:48.015Z,41.70
2018-12-22T00:54:18.030Z,41.60
2018-12-22T00:56:46.297Z,41.70
2018-12-22T00:59:14.524Z,41.80
2018-12-22T01:01:42.827Z,41.80
2018-12-22T01:04:10.959Z,42.00
2018-12-22T01:06:39.115Z,42.10
2018-12-22T01:09:07.507Z,41.70
2018-12-22T01:11:35.716Z,41.90
2018-12-22T01:14:04.184Z,42.30
2018-12-22T01:16:32.406Z,41.80
2018-12-22T01:19:00.552Z,41.80
2018-12-22T01:21:28.715Z,41.60
2018-12-22T01:23:56.911Z,41.50
2018-12-22T01:26:25.072Z,41.30
2018-12-22T01:28:53.245Z,41.40
2018-12-22T01:31:21.343Z,41.40
2018-12-22T01:33:49.517Z,41.40
2018-12-22T01:36:17.724Z,41.40
2018-12-22T01:38:45.879Z,41.50
2018-12-22T01:41:14.095Z,41.30
2018-12-22T01:43:42.347Z,41.60
2018-12-22T01:46:10.543Z,41.90
2018-12-22T01:48:38.775Z,41.80
2018-12-22T01:51:06.951Z,41.50
2018-12-22T01:53:35.067Z,41.40
2018-12-22T01:56:03.307Z,41.10
2018-12-22T01:58:31.471Z,40.40
2018-12-22T02:00:59.573Z,40.40
2018-12-22T02:03:27.687Z,40.00
2018-12-22T02:05:55.832Z,40.10
2018-12-22T02:08:24.047Z,40.40
2018-12-22T02:10:52.175Z,40.40
2018-12-22T02:13:20.316Z,41.30
2018-12-22T02:15:48.499Z,40.70
2018-12-22T02:18:16.719Z,41.00
2018-12-22T02:20:44.880Z,40.40
2018-12-22T02:23:13.033Z,40.20
2018-12-22T02:25:41.236Z,40.50
2018-12-22T02:28:09.468Z,41.00
2018-12-22T02:30:37.616Z,40.80
2018-12-22T02:33:05.771Z,40.70
2018-12-22T02:35:33.973Z,40.40
2018-12-22T02:38:02.150Z,40.30
2018-12-22T02:40:30.369Z,40.30
2018-12-22T02:42:58.607Z,39.90
2018-12-22T02:45:26.803Z,40.20
2018-12-22T02:47:54.954Z,40.70
2018-12-22T02:50:23.113Z,40.80
2018-12-22T02:52:51.288Z,41.50
2018-12-22T02:55:19.431Z,40.80
2018-12-22T02:57:47.595Z,41.20
2018-12-22T03:00:15.816Z,41.70
2018-12-22T03:02:43.966Z,41.70
2018-12-22T03:05:12.149Z,42.50
2018-12-22T03:07:40.288Z,44.10
2018-12-22T03:10:08.735Z,45.40
2018-12-22T03:12:36.878Z,46.10
2018-12-22T03:15:05.711Z,46.90
2018-12-22T03:17:34.334Z,47.50
2018-12-22T03:20:02.588Z,47.00
2018-12-22T03:22:30.751Z,47.00
2018-12-22T03:24:59.041Z,47.70
2018-12-22T03:27:27.188Z,46.30
2018-12-22T03:29:55.331Z,46.10
2018-12-22T03:32:23.473Z,46.00
2018-12-22T03:34:51.711Z,45.60
2018-12-22T03:37:19.873Z,45.70
2018-12-22T03:39:48.055Z,45.20
2018-12-22T03:42:16.232Z,45.50
2018-12-22T03:44:44.431Z,45.50
2018-12-22T03:47:12.568Z,45.50
2018-12-22T03:49:40.705Z,45.30
2018-12-22T03:52:08.875Z,45.90
2018-12-22T03:54:37.235Z,46.30
2018-12-22T03:57:05.485Z,46.50
2018-12-22T03:59:33.620Z,46.90
2018-12-22T04:02:01.743Z,46.60
2018-12-22T04:04:29.899Z,45.80
2018-12-22T04:06:58.093Z,46.50
2018-12-22T04:09:26.459Z,45.90
2018-12-22T04:11:54.718Z,45.80
2018-12-22T04:14:22.959Z,45.70
2018-12-22T04:16:51.171Z,45.50
2018-12-22T04:19:19.287Z,45.60
2018-12-22T04:21:47.438Z,45.80
2018-12-22T04:24:15.976Z,46.50
2018-12-22T04:26:44.166Z,47.40
2018-12-22T04:29:12.407Z,46.90
2018-12-22T04:31:40.664Z,46.70
2018-12-22T04:34:08.930Z,47.30
2018-12-22T04:36:37.234Z,47.80
2018-12-22T04:39:07.403Z,47.00
2018-12-22T04:41:35.523Z,47.40
2018-12-22T04:44:03.999Z,45.50
2018-12-22T04:46:32.248Z,45.50
2018-12-22T04:49:00.440Z,44.30
2018-12-22T04:51:28.638Z,43.80
2018-12-22T04:53:56.783Z,43.60
2018-12-22T04:56:24.907Z,44.30
2018-12-22T04:58:53.055Z,43.40
2018-12-22T05:01:21.201Z,43.40
2018-12-22T05:03:49.441Z,43.10
2018-12-22T05:06:17.651Z,42.60
2018-12-22T05:08:45.824Z,42.50
2018-12-22T05:11:14.071Z,42.50
2018-12-22T05:13:42.211Z,43.10
2018-12-22T05:16:10.347Z,43.30
2018-12-22T05:18:38.605Z,45.10
2018-12-22T05:21:06.952Z,47.20
2018-12-22T05:23:35.131Z,47.60
2018-12-22T05:26:03.299Z,48.20
2018-12-22T05:28:31.445Z,48.30
2018-12-22T05:30:59.610Z,47.50
2018-12-22T05:33:27.811Z,45.90
2018-12-22T05:35:55.956Z,46.00
2018-12-22T05:38:24.102Z,44.60
2018-12-22T05:40:52.259Z,45.00
2018-12-22T05:43:20.515Z,43.70
2018-12-22T05:45:48.663Z,42.40
2018-12-22T05:48:16.799Z,41.50
2018-12-22T05:50:44.979Z,41.10
2018-12-22T05:53:13.135Z,41.30
2018-12-22T05:55:41.321Z,40.90
2018-12-22T05:58:09.687Z,40.50
2018-12-22T06:00:37.847Z,40.00
2018-12-22T06:03:05.975Z,40.10
2018-12-22T06:05:34.168Z,40.20
2018-12-22T06:08:02.353Z,40.20
2018-12-22T06:10:30.671Z,40.00
2018-12-22T06:12:58.796Z,39.60
2018-12-22T06:15:26.998Z,38.40
2018-12-22T06:17:55.115Z,39.10
2018-12-22T06:20:23.271Z,37.90
2018-12-22T06:22:51.454Z,37.50
2018-12-22T06:25:19.692Z,37.20
2018-12-22T06:27:47.901Z,36.70
2018-12-22T06:30:16.047Z,37.20
2018-12-22T06:32:44.219Z,37.80
2018-12-22T06:35:12.387Z,37.80
2018-12-22T06:37:40.555Z,38.00
2018-12-22T06:40:08.724Z,38.50
2018-12-22T06:42:36.876Z,38.40
2018-12-22T06:45:05.728Z,38.50
2018-12-22T06:47:33.950Z,39.00
2018-12-22T06:50:02.091Z,39.50
2018-12-22T06:52:30.280Z,39.60
2018-12-22T06:54:58.483Z,39.50
2018-12-22T06:57:26.684Z,39.40
2018-12-22T06:59:54.843Z,39.70
2018-12-22T07:02:23.155Z,39.30
2018-12-22T07:04:51.316Z,39.70
2018-12-22T07:07:19.531Z,40.40
2018-12-22T07:09:47.664Z,40.20
2018-12-22T07:12:15.856Z,40.20
2018-12-22T07:14:43.968Z,40.10
2018-12-22T07:17:12.104Z,40.20
2018-12-22T07:19:40.603Z,41.00
2018-12-22T07:22:08.714Z,40.90
2018-12-22T07:24:36.909Z,41.20
2018-12-22T07:27:05.201Z,40.80
2018-12-22T07:29:33.335Z,40.80
2018-12-22T07:32:01.520Z,41.00
2018-12-22T07:34:29.851Z,41.10
2018-12-22T07:36:58.103Z,40.90
2018-12-22T07:39:26.257Z,40.60
2018-12-22T07:41:54.446Z,39.90
2018-12-22T07:44:22.643Z,39.00
2018-12-22T07:46:50.814Z,38.10
2018-12-22T07:49:19.023Z,38.10
2018-12-22T07:51:47.263Z,38.20
2018-12-22T07:54:15.621Z,39.80
2018-12-22T07:56:43.787Z,38.10
2018-12-22T07:59:11.931Z,38.10
2018-12-22T08:01:40.131Z,38.50
2018-12-22T08:04:08.296Z,38.10
2018-12-22T08:06:36.569Z,38.10
2018-12-22T08:09:07.031Z,36.90
2018-12-22T08:11:35.231Z,37.00
2018-12-22T08:14:03.735Z,35.70
2018-12-22T08:16:32.019Z,35.60
2018-12-22T08:19:00.175Z,35.90
2018-12-22T08:21:28.569Z,37.20
2018-12-22T08:23:56.678Z,35.90
2018-12-22T08:26:24.808Z,35.90
2018-12-22T08:28:52.975Z,35.00
2018-12-22T08:31:23.062Z,35.20
2018-12-22T08:33:51.350Z,34.50
2018-12-22T08:36:19.572Z,34.80
2018-12-22T08:38:48.137Z,34.50
2018-12-22T08:41:16.243Z,34.00
2018-12-22T08:43:44.362Z,34.20
2018-12-22T08:46:12.591Z,33.50
2018-12-22T08:48:40.731Z,33.50
2018-12-22T08:51:08.876Z,33.40
2018-12-22T08:53:37.031Z,33.30
2018-12-22T08:56:05.200Z,33.50
2018-12-22T08:58:33.401Z,33.60
2018-12-22T09:01:01.571Z,34.70
2018-12-22T09:03:29.747Z,34.20
2018-12-22T09:05:57.919Z,34.30
2018-12-22T09:08:26.109Z,33.90
2018-12-22T09:10:54.269Z,34.40
2018-12-22T09:13:22.443Z,33.80
2018-12-22T09:15:50.629Z,34.50
2018-12-22T09:18:18.759Z,34.10
2018-12-22T09:20:48.136Z,34.90
2018-12-22T09:23:16.307Z,35.10
2018-12-22T09:25:44.563Z,34.20
2018-12-22T09:28:12.710Z,34.30
2018-12-22T09:30:40.990Z,33.90
2018-12-22T09:33:09.227Z,33.80
2018-12-22T09:35:37.360Z,34.60
2018-12-22T09:38:05.614Z,33.80
2018-12-22T09:40:33.967Z,33.60
2018-12-22T09:43:02.119Z,33.20
2018-12-22T09:45:30.252Z,33.50
2018-12-22T09:47:58.456Z,34.50
2018-12-22T09:50:26.843Z,34.10
2018-12-22T09:52:54.999Z,34.00
2018-12-22T09:55:23.199Z,33.50
2018-12-22T09:57:51.331Z,32.40
2018-12-22T10:00:19.568Z,30.90
2018-12-22T10:02:47.735Z,30.50
2018-12-22T10:05:15.876Z,30.40
2018-12-22T10:07:44.023Z,29.90
2018-12-22T10:10:15.055Z,30.20
2018-12-22T10:12:43.256Z,30.00
2018-12-22T10:15:11.447Z,29.80
2018-12-22T10:17:39.993Z,29.80
2018-12-22T10:20:08.763Z,30.30
2018-12-22T10:22:37.020Z,30.90
2018-12-22T10:25:08.500Z,31.00
2018-12-22T10:27:36.713Z,32.20
2018-12-22T10:30:07.623Z,32.00
2018-12-22T10:32:35.754Z,32.60
2018-12-22T10:35:04.893Z,32.80
2018-12-22T10:37:33.229Z,32.60
2018-12-22T10:40:01.391Z,33.20
2018-12-22T10:42:29.615Z,33.30
2018-12-22T10:44:57.758Z,33.40
2018-12-22T10:47:25.891Z,33.50
2018-12-22T10:49:54.007Z,32.60
2018-12-22T10:52:22.168Z,32.10
2018-12-22T10:54:50.335Z,31.30
2018-12-22T10:57:18.485Z,31.20
2018-12-22T10:59:46.904Z,29.40
2018-12-22T11:02:15.075Z,28.90
2018-12-22T11:04:43.383Z,28.60
2018-12-22T11:07:11.795Z,28.00
2018-12-22T11:09:39.995Z,28.20
2018-12-22T11:12:08.168Z,28.10
2018-12-22T11:14:36.331Z,27.70
2018-12-22T11:17:04.591Z,28.00
2018-12-22T11:19:32.748Z,28.10
2018-12-22T11:22:00.916Z,27.70
2018-12-22T11:24:29.099Z,28.00
2018-12-22T11:26:57.304Z,28.30
2018-12-22T11:29:25.451Z,28.10
2018-12-22T11:31:53.709Z,27.70
2018-12-22T11:34:21.846Z,27.70
2018-12-22T11:36:50.091Z,27.00
2018-12-22T11:39:18.499Z,28.00
2018-12-22T11:41:46.671Z,27.70
2018-12-22T11:44:14.884Z,27.70
2018-12-22T11:46:43.071Z,27.60
2018-12-22T11:49:44.711Z,27.70
2018-12-22T11:52:12.882Z,25.80
2018-12-22T11:54:41.067Z,23.80
2018-12-22T11:57:09.223Z,24.90
2018-12-22T11:59:37.351Z,25.00
2018-12-22T12:02:10.012Z,25.90
2018-12-22T12:04:35.771Z,27.90
2018-12-22T12:07:04.024Z,29.30
2018-12-22T12:09:32.160Z,30.80
2018-12-22T12:12:00.454Z,32.80
2018-12-22T12:14:30.116Z,33.00
2018-12-22T12:17:15.019Z,35.50
2018-12-22T12:19:43.173Z,34.50
2018-12-22T12:22:11.355Z,35.00
2018-12-22T12:24:39.533Z,34.50
2018-12-22T12:27:07.707Z,32.10
2018-12-22T12:29:35.847Z,29.60
2018-12-22T12:32:04.085Z,27.80
2018-12-22T12:34:32.311Z,27.00
2018-12-22T12:37:00.448Z,28.40
2018-12-22T12:39:28.687Z,29.10
2018-12-22T12:41:56.891Z,33.20
2018-12-22T12:44:25.124Z,33.10
2018-12-22T12:46:54.335Z,34.40
2018-12-22T12:49:22.905Z,35.20
2018-12-22T12:51:51.106Z,36.00
2018-12-22T12:54:20.896Z,36.20
2018-12-22T12:56:54.643Z,36.80
2018-12-22T12:59:23.209Z,37.40
2018-12-22T13:01:51.654Z,36.40
2018-12-22T13:04:19.831Z,36.20
2018-12-22T13:06:48.067Z,35.10
2018-12-22T13:09:16.491Z,35.50
2018-12-22T13:11:44.715Z,35.30
2018-12-22T13:14:17.156Z,34.50
2018-12-22T13:16:45.315Z,35.00
2018-12-22T13:19:13.491Z,35.50
2018-12-22T13:21:44.677Z,35.30
2018-12-22T13:24:12.816Z,34.50
2018-12-22T13:26:41.203Z,34.90
2018-12-22T13:29:09.347Z,35.50
2018-12-22T13:31:37.887Z,35.80
2018-12-22T13:34:06.167Z,37.20
2018-12-22T13:36:34.949Z,39.00
2018-12-22T13:39:23.419Z,40.20
2018-12-22T13:41:51.591Z,41.60
2018-12-22T13:44:19.790Z,43.80
2018-12-22T13:46:47.928Z,46.60
2018-12-22T13:49:16.233Z,47.90
2018-12-22T13:51:45.880Z,45.90
2018-12-22T13:54:16.719Z,46.10
2018-12-22T13:56:44.863Z,45.70
2018-12-22T13:59:13.076Z,45.70
2018-12-22T14:01:45.657Z,43.00
2018-12-22T14:04:13.899Z,42.70
2018-12-22T14:06:44.228Z,42.30
2018-12-22T14:09:12.832Z,42.50
2018-12-22T14:11:42.036Z,40.20
2018-12-22T14:14:13.557Z,40.50
2018-12-22T14:16:49.259Z,39.40
2018-12-22T14:19:17.779Z,39.00
2018-12-22T14:21:45.951Z,38.70
2018-12-22T14:24:27.584Z,39.40
2018-12-22T14:26:55.741Z,39.30
2018-12-22T14:29:24.004Z,39.70
2018-12-22T14:31:52.335Z,40.20
2018-12-22T14:34:24.695Z,41.50
2018-12-22T14:36:52.855Z,41.80
2018-12-22T14:39:21.031Z,41.90
2018-12-22T14:41:49.195Z,42.20
2018-12-22T14:44:17.376Z,43.10
2018-12-22T14:46:45.503Z,42.90
2018-12-22T14:49:13.681Z,42.70
2018-12-22T14:51:41.843Z,43.00
2018-12-22T14:54:09.989Z,43.50
2018-12-22T14:56:40.997Z,43.20
2018-12-22T14:59:11.177Z,44.30
2018-12-22T15:01:39.372Z,44.20
2018-12-22T15:04:07.523Z,43.60
2018-12-22T15:06:35.655Z,43.70
2018-12-22T15:09:13.127Z,43.70
2018-12-22T15:11:35.799Z,43.50
2018-12-22T15:14:04.027Z,43.50
2018-12-22T15:16:32.139Z,43.30
2018-12-22T15:19:00.383Z,43.00
2018-12-22T15:21:28.580Z,42.70
2018-12-22T15:23:56.735Z,42.30
2018-12-22T15:26:24.997Z,42.20
2018-12-22T15:28:53.268Z,42.00
2018-12-22T15:31:21.379Z,41.50
2018-12-22T15:33:49.763Z,41.00
2018-12-22T15:36:17.935Z,41.50
2018-12-22T15:38:46.224Z,40.00
2018-12-22T15:41:14.364Z,39.80
2018-12-22T15:43:42.559Z,40.00
2018-12-22T15:46:10.887Z,38.80
2018-12-22T15:48:39.091Z,38.10
2018-12-22T15:51:07.339Z,38.40
2018-12-22T15:53:35.563Z,38.40
2018-12-22T15:56:04.055Z,38.70
2018-12-22T15:58:32.199Z,39.10
2018-12-22T16:01:00.436Z,39.70
2018-12-22T16:03:28.710Z,40.50
2018-12-22T16:05:56.947Z,41.00
2018-12-22T16:08:25.288Z,40.40
2018-12-22T16:10:53.443Z,41.20
2018-12-22T16:13:21.578Z,41.30
2018-12-22T16:15:49.867Z,41.20
2018-12-22T16:18:18.167Z,40.50
2018-12-22T16:20:46.604Z,40.00
2018-12-22T16:23:14.717Z,40.10
2018-12-22T16:25:42.897Z,40.30
2018-12-22T16:28:21.754Z,40.80
2018-12-22T16:30:55.939Z,41.40
2018-12-22T16:33:24.143Z,41.80
2018-12-22T16:35:52.308Z,42.30
2018-12-22T16:38:20.567Z,42.40
2018-12-22T16:40:48.832Z,42.30
2018-12-22T16:43:18.036Z,42.50
2018-12-22T16:45:48.336Z,42.30
2018-12-22T16:48:17.121Z,42.30
2018-12-22T16:50:46.193Z,42.10
2018-12-22T16:53:14.388Z,42.00
2018-12-22T16:55:42.856Z,41.80
2018-12-22T16:58:16.103Z,41.90
2018-12-22T17:00:57.066Z,42.30
2018-12-22T17:03:25.235Z,42.40
2018-12-22T17:05:53.370Z,42.60
2018-12-22T17:08:21.519Z,42.80
2018-12-22T17:10:53.331Z,42.90
2018-12-22T17:13:21.815Z,43.00
2018-12-22T17:15:54.474Z,43.20
2018-12-22T17:18:23.136Z,42.30
2018-12-22T17:20:56.071Z,42.60
2018-12-22T17:23:33.543Z,41.80
2018-12-22T17:26:04.587Z,41.50
2018-12-22T17:28:32.769Z,41.70
2018-12-22T17:31:00.959Z,41.50
2018-12-22T17:33:29.223Z,41.50
2018-12-22T17:35:57.455Z,41.60
2018-12-22T17:38:26.479Z,41.30
2018-12-22T17:40:55.979Z,41.60
2018-12-22T17:43:24.240Z,41.60
2018-12-22T17:45:52.391Z,41.50
2018-12-22T17:48:20.571Z,41.60
2018-12-22T17:50:48.887Z,41.60
2018-12-22T17:53:17.036Z,41.60
2018-12-22T17:55:45.244Z,41.60
2018-12-22T17:58:13.528Z,41.10
2018-12-22T18:00:41.663Z,41.10
2018-12-22T18:03:12.080Z,40.40
2018-12-22T18:05:40.215Z,40.50
2018-12-22T18:08:08.386Z,40.30
2018-12-22T18:10:36.612Z,39.50
2018-12-22T18:13:04.815Z,39.30
2018-12-22T18:15:33.077Z,39.10
2018-12-22T18:18:01.420Z,38.50
2018-12-22T18:20:29.678Z,38.30
2018-12-22T18:22:57.864Z,38.20
2018-12-22T18:25:26.031Z,38.40
2018-12-22T18:27:54.547Z,38.90
2018-12-22T18:30:22.711Z,38.90
2018-12-22T18:32:50.869Z,39.50
2018-12-22T18:35:19.031Z,40.00
2018-12-22T18:37:47.238Z,40.40
2018-12-22T18:40:18.152Z,40.90
2018-12-22T18:42:46.666Z,41.00
2018-12-22T18:45:14.790Z,41.10
2018-12-22T18:47:43.202Z,40.70
2018-12-22T18:50:21.518Z,41.00
2018-12-22T18:52:49.863Z,41.20
2018-12-22T18:55:18.135Z,40.90
2018-12-22T18:57:49.231Z,40.90
2018-12-22T19:00:19.657Z,40.70
2018-12-22T19:02:47.935Z,40.80
2018-12-22T19:05:16.567Z,40.40
2018-12-22T19:07:44.736Z,40.20
2018-12-22T19:10:20.001Z,40.30
2018-12-22T19:12:48.477Z,40.10
2018-12-22T19:15:16.840Z,40.00
2018-12-22T19:17:45.011Z,39.80
2018-12-22T19:20:17.928Z,40.00
2018-12-22T19:22:46.236Z,39.90
2018-12-22T19:25:14.979Z,39.90
2018-12-22T19:27:43.575Z,39.80
2018-12-22T19:30:11.864Z,39.60
2018-12-22T19:32:41.029Z,39.50
2018-12-22T19:35:09.322Z,39.80
2018-12-22T19:37:38.413Z,39.60
2018-12-22T19:40:06.737Z,40.40
2018-12-22T19:42:35.050Z,39.70
2018-12-22T19:45:03.398Z,39.60
2018-12-22T19:47:31.680Z,40.00
2018-12-22T19:49:59.788Z,40.20
2018-12-22T19:52:27.899Z,40.50
2018-12-22T19:54:56.159Z,40.50
2018-12-22T19:57:24.273Z,40.90
2018-12-22T19:59:52.443Z,41.20
2018-12-22T20:02:20.607Z,41.10
2018-12-22T20:04:48.763Z,41.40
2018-12-22T20:07:16.914Z,41.50
2018-12-22T20:09:45.079Z,41.60
2018-12-22T20:12:13.343Z,41.40
2018-12-22T20:14:41.483Z,41.70
2018-12-22T20:17:09.626Z,41.80
2018-12-22T20:19:37.762Z,42.30
2018-12-22T20:22:05.883Z,43.80
2018-12-22T20:24:34.114Z,42.60
2018-12-22T20:27:02.293Z,42.30
2018-12-22T20:29:30.903Z,42.50
2018-12-22T20:31:59.068Z,42.90
2018-12-22T20:34:27.303Z,43.00
2018-12-22T20:36:55.624Z,41.60
2018-12-22T20:39:23.747Z,41.20
2018-12-22T20:41:52.035Z,41.20
2018-12-22T20:44:20.207Z,39.90
2018-12-22T20:46:48.347Z,39.80
2018-12-22T20:49:16.668Z,39.80
2018-12-22T20:51:44.888Z,39.50
2018-12-22T20:54:13.049Z,39.80
2018-12-22T20:56:41.213Z,40.10
2018-12-22T20:59:09.443Z,40.30
2018-12-22T21:01:37.615Z,40.90
2018-12-22T21:04:06.121Z,41.10
2018-12-22T21:06:34.618Z,41.10
2018-12-22T21:09:04.439Z,41.10
2018-12-22T21:11:32.572Z,41.10
2018-12-22T21:14:00.775Z,40.80
2018-12-22T21:16:28.968Z,41.20
2018-12-22T21:18:57.287Z,41.10
2018-12-22T21:21:25.771Z,41.60
2018-12-22T21:23:54.076Z,42.30
2018-12-22T21:26:22.187Z,42.30
2018-12-22T21:28:50.374Z,42.60
2018-12-22T21:31:18.611Z,42.70
2018-12-22T21:33:46.811Z,43.60
2018-12-22T21:36:14.994Z,43.20
2018-12-22T21:38:43.131Z,43.50
2018-12-22T21:41:11.272Z,43.70
2018-12-22T21:43:39.466Z,43.00
2018-12-22T21:46:07.655Z,42.70
2018-12-22T21:48:35.779Z,42.60
2018-12-22T21:51:03.942Z,42.50
2018-12-22T21:53:32.111Z,42.10
2018-12-22T21:56:00.372Z,41.80
2018-12-22T21:58:28.508Z,41.50
2018-12-22T22:00:56.668Z,41.30
2018-12-22T22:03:24.864Z,41.00
2018-12-22T22:05:52.999Z,41.00
2018-12-22T22:08:21.155Z,41.10
2018-12-22T22:10:49.340Z,41.10
2018-12-22T22:13:17.468Z,41.20
2018-12-22T22:15:45.683Z,41.20
2018-12-22T22:18:13.895Z,41.40
2018-12-22T22:20:42.036Z,41.60
2018-12-22T22:23:18.657Z,41.20
2018-12-22T22:25:40.335Z,41.20
2018-12-22T22:28:08.535Z,41.50
2018-12-22T22:30:36.704Z,41.20
2018-12-22T22:33:04.860Z,41.10
2018-12-22T22:35:33.039Z,41.10
2018-12-22T22:38:01.173Z,40.80
2018-12-22T22:40:29.723Z,40.80
2018-12-22T22:42:57.859Z,40.70
2018-12-22T22:45:26.059Z,40.80
2018-12-22T22:47:54.203Z,40.70
2018-12-22T22:50:22.343Z,40.80
2018-12-22T22:52:50.779Z,40.80
2018-12-22T22:55:18.929Z,41.40
2018-12-22T22:57:47.171Z,41.70
2018-12-22T23:00:20.447Z,41.30
2018-12-22T23:02:48.844Z,41.60
2018-12-22T23:05:17.119Z,41.70
2018-12-22T23:07:45.251Z,41.70
2018-12-22T23:10:13.394Z,41.30
2018-12-22T23:12:41.580Z,41.00
2018-12-22T23:15:09.859Z,40.90
2018-12-22T23:17:38.125Z,40.90
2018-12-22T23:20:06.477Z,41.00
2018-12-22T23:22:34.739Z,41.00
2018-12-22T23:25:02.876Z,41.50
2018-12-22T23:27:31.235Z,41.30
2018-12-22T23:29:59.403Z,41.70
2018-12-22T23:32:27.735Z,42.00
2018-12-22T23:35:02.958Z,41.80
2018-12-22T23:37:26.035Z,41.50
2018-12-22T23:39:54.272Z,41.60
2018-12-22T23:42:22.628Z,41.40
2018-12-22T23:44:50.807Z,41.50
2018-12-22T23:47:18.999Z,41.90
2018-12-22T23:49:47.829Z,41.90
2018-12-22T23:52:15.930Z,43.40
2018-12-22T23:54:44.111Z,42.50
2018-12-22T23:57:12.221Z,42.70
2018-12-22T23:59:40.407Z,43.20
